Northeast Iowa Regional Airport
KCCY : now visible

Airfield :











YOU CAN JOIN US ON...

 
LOGIN :

Register | Disclaimer

   EN    FR    IT 

 









Legend :    VFR   Marginal VFR   IFR   Intensive IFR   Very Intensive IFR
Visi :
Ceiling :
>= 8 km
>= 3000ft
5 to 8 km
1000 to 3000 ft
1500m to 5 km
500 to 1000 ft
800 to 1500m
200 to 500 ft
< 800m
< 200 ft
Symbols :   Thunderstorms  Fog  Heavy snow  Heavy precipitations  Wind > 20 kt






- Airport Elevation : 1125 ft


KCCY - Northeast Iowa Regional

CURRENT METAR :
  • 231815Z AUTO 20013KT 10SM CLR 24/14 A2986 RMK AO2

EXPIRED METARs :
  • 231755Z AUTO 22010G18KT 10SM CLR 24/14 A2987 RMK AO2
  • 231735Z AUTO 22014KT 10SM CLR 23/14 A2987 RMK AO2
  • 231715Z AUTO 22011G19KT 10SM CLR 23/14 A2987 RMK AO2
  • 231655Z AUTO 21012G17KT 10SM CLR 23/14 A2987 RMK AO2
  • 231635Z AUTO 21014G20KT 10SM CLR 23/15 A2987 RMK AO2
  • 231615Z AUTO 22011KT 10SM CLR 22/15 A2988 RMK AO2
  • 231555Z AUTO 20014KT 10SM CLR 21/15 A2987 RMK AO2
  • 231535Z AUTO 22013KT 10SM CLR 21/15 A2988 RMK AO2
  • 231515Z AUTO 21014G19KT 10SM CLR 20/14 A2988 RMK AO2
  • 231455Z AUTO 21012KT 10SM CLR 20/14 A2988 RMK AO2
  • 231435Z AUTO 21015G20KT 10SM FEW080 19/14 A2988 RMK AO2
  • 231415Z AUTO 21010G15KT 10SM SCT080 19/14 A2988 RMK AO2
  • 231355Z AUTO 20012KT 10SM SCT080 18/15 A2988 RMK AO2

TAF N/A
KZMP FIR / North America



MET'MAP, your aeronautical weather chart ! - Copyright ORBIFLY December 2007 - Disclaimer

ORBIFLY MET'MAP TEAM :

Programming & Development : Alexandra Zaïnal
Original concept : Baudouin d'Aumeries
Technical & hardware support : Manuel Goepfert
Assistance : Marc-Olivier Méhu




SOURCES & CREDITS :

   NOAA       Earth
Advisory